Time;durP1;ratioP1;P1;durP2;ratioP2;P2;SDS_P1;SDS_P2;PMS_P1;PMS_P2;Temp;Humidity;BMP_temperature;BMP_pressure;BME280_temperature;BME280_humidity;BME280_pressure;Samples;Min_cycle;Max_cycle;Signal;HPM_P1;HPM_P2
2022/12/08 00:01:52;;;;;;;8.27;2.57;;;;;;;;;;5027944;28;20033;-59
2022/12/08 00:04:17;;;;;;;6.68;2.72;;;;;;;;;;5029009;28;20029;-57
2022/12/08 00:09:30;;;;;;;7.00;2.70;;;;;;;;;;5029753;28;20102;-57
2022/12/08 00:11:59;;;;;;;8.32;2.65;;;;;;;;;;5025978;28;20068;-58
2022/12/08 00:14:26;;;;;;;9.52;3.00;;;;;;;;;;5028859;28;20037;-56
2022/12/08 00:16:52;;;;;;;5.93;2.60;;;;;;;;;;5029465;28;20477;-57
2022/12/08 00:19:17;;;;;;;8.70;3.03;;;;;;;;;;5029199;28;20143;-59
2022/12/08 00:21:42;;;;;;;7.93;3.00;;;;;;;;;;5028499;28;20538;-58
2022/12/08 00:24:07;;;;;;;8.40;2.92;;;;;;;;;;5026974;28;20072;-58
2022/12/08 00:26:32;;;;;;;7.30;2.40;;;;;;;;;;5028928;28;20472;-57
2022/12/08 00:28:58;;;;;;;6.30;2.43;;;;;;;;;;5028670;28;20064;-57
2022/12/08 00:31:23;;;;;;;7.87;2.87;;;;;;;;;;5025836;28;20033;-57
2022/12/08 00:33:48;;;;;;;9.38;2.90;;;;;;;;;;5026652;28;20078;-57
2022/12/08 00:36:14;;;;;;;8.27;2.70;;;;;;;;;;5027041;28;20105;-57
2022/12/08 00:38:39;;;;;;;7.43;2.90;;;;;;;;;;5024701;28;20022;-57
2022/12/08 00:41:12;;;;;;;7.43;2.90;;;;;;;;;;5027920;28;20448;-57
2022/12/08 00:43:38;;;;;;;7.10;2.88;;;;;;;;;;5027617;28;20053;-57
2022/12/08 00:46:03;;;;;;;7.97;2.50;;;;;;;;;;5028162;28;20057;-56
2022/12/08 00:48:28;;;;;;;7.03;2.40;;;;;;;;;;5026197;28;20032;-57
2022/12/08 00:50:53;;;;;;;8.67;2.60;;;;;;;;;;5028058;28;20036;-57
2022/12/08 00:53:18;;;;;;;6.97;2.50;;;;;;;;;;5027370;28;20053;-58
2022/12/08 00:55:43;;;;;;;9.27;2.63;;;;;;;;;;5028334;28;20029;-58
2022/12/08 00:58:09;;;;;;;6.80;2.70;;;;;;;;;;5027242;28;20121;-57
2022/12/08 01:00:34;;;;;;;7.93;2.90;;;;;;;;;;5025115;28;20052;-57
2022/12/08 01:02:59;;;;;;;7.00;2.57;;;;;;;;;;5028320;28;20065;-58
2022/12/08 01:05:24;;;;;;;6.83;2.60;;;;;;;;;;5028316;28;20085;-58
2022/12/08 01:07:49;;;;;;;6.77;2.90;;;;;;;;;;5027270;28;20044;-58
2022/12/08 01:10:15;;;;;;;8.43;2.57;;;;;;;;;;5027741;28;20523;-58
2022/12/08 01:12:40;;;;;;;7.77;2.47;;;;;;;;;;5025531;28;20046;-58
2022/12/08 01:15:05;;;;;;;10.17;3.03;;;;;;;;;;5030530;28;20470;-57
2022/12/08 01:17:30;;;;;;;6.22;2.40;;;;;;;;;;5030617;28;20140;-58
2022/12/08 01:19:56;;;;;;;7.07;2.73;;;;;;;;;;5031512;28;20115;-57
2022/12/08 01:22:21;;;;;;;7.47;2.50;;;;;;;;;;5030646;28;20039;-57
2022/12/08 01:24:46;;;;;;;7.55;2.80;;;;;;;;;;5030170;28;20034;-57
2022/12/08 01:27:13;;;;;;;6.77;2.87;;;;;;;;;;5031039;28;20150;-57
2022/12/08 01:29:39;;;;;;;8.95;2.75;;;;;;;;;;5027108;28;20088;-57
2022/12/08 01:32:04;;;;;;;7.37;2.77;;;;;;;;;;5030423;28;20465;-57
2022/12/08 01:34:29;;;;;;;7.80;2.92;;;;;;;;;;5031574;28;20032;-57
2022/12/08 01:36:54;;;;;;;8.93;2.70;;;;;;;;;;5030587;28;20041;-57
2022/12/08 01:39:19;;;;;;;7.70;3.17;;;;;;;;;;5028213;28;20420;-57
2022/12/08 01:41:46;;;;;;;8.97;3.27;;;;;;;;;;5030289;28;20112;-58
2022/12/08 01:44:11;;;;;;;8.35;3.10;;;;;;;;;;5031141;28;20227;-58
2022/12/08 01:46:40;;;;;;;8.03;3.23;;;;;;;;;;5032617;28;20037;-58
2022/12/08 01:49:41;;;;;;;7.53;2.78;;;;;;;;;;5028888;28;20029;-57
2022/12/08 01:52:21;;;;;;;11.90;3.30;;;;;;;;;;4995942;28;20562;-58
2022/12/08 01:54:55;;;;;;;9.82;3.55;;;;;;;;;;5028275;28;20091;-58
2022/12/08 01:57:27;;;;;;;10.55;3.25;;;;;;;;;;5032358;28;20049;-56
2022/12/08 01:59:59;;;;;;;9.57;3.58;;;;;;;;;;5029148;28;20033;-57
2022/12/08 02:02:28;;;;;;;8.13;3.40;;;;;;;;;;5029484;28;20120;-57
2022/12/08 02:04:53;;;;;;;11.90;4.00;;;;;;;;;;5031958;28;20014;-57
2022/12/08 02:07:19;;;;;;;10.97;3.77;;;;;;;;;;5032124;28;20022;-57
2022/12/08 02:09:45;;;;;;;11.32;4.10;;;;;;;;;;5027456;28;20030;-57
2022/12/08 02:12:10;;;;;;;10.77;3.70;;;;;;;;;;5029508;28;20057;-58
2022/12/08 02:14:35;;;;;;;12.60;4.30;;;;;;;;;;5032239;28;20464;-58
2022/12/08 02:17:24;;;;;;;9.80;3.63;;;;;;;;;;5031299;28;20730;-58
2022/12/08 02:20:08;;;;;;;8.63;3.70;;;;;;;;;;5030516;28;20037;-58
2022/12/08 02:22:45;;;;;;;10.18;3.50;;;;;;;;;;5027743;28;20068;-58
2022/12/08 02:25:22;;;;;;;10.77;3.60;;;;;;;;;;5029319;28;20060;-58
2022/12/08 02:28:06;;;;;;;13.55;4.28;;;;;;;;;;5030173;28;20096;-57
2022/12/08 02:30:41;;;;;;;11.23;3.75;;;;;;;;;;5029958;28;20484;-57
2022/12/08 02:33:12;;;;;;;12.27;4.18;;;;;;;;;;5030129;28;20029;-57
2022/12/08 02:35:43;;;;;;;11.32;3.88;;;;;;;;;;5030648;28;20028;-57
2022/12/08 02:38:24;;;;;;;10.80;4.22;;;;;;;;;;5031480;28;20025;-57
2022/12/08 02:40:53;;;;;;;12.30;3.95;;;;;;;;;;5029265;28;20061;-57
2022/12/08 02:43:26;;;;;;;11.60;4.30;;;;;;;;;;5029844;28;20037;-57
2022/12/08 02:45:58;;;;;;;11.57;3.83;;;;;;;;;;5031314;28;20392;-57
2022/12/08 02:48:25;;;;;;;9.88;4.13;;;;;;;;;;5030791;28;20037;-57
2022/12/08 02:50:51;;;;;;;10.15;4.18;;;;;;;;;;5030080;28;20022;-57
2022/12/08 02:53:16;;;;;;;10.07;4.00;;;;;;;;;;5027543;28;20036;-57
2022/12/08 02:55:57;;;;;;;8.45;3.67;;;;;;;;;;5026168;28;20425;-57
2022/12/08 02:58:45;;;;;;;10.02;4.00;;;;;;;;;;5030788;28;20037;-57
2022/12/08 03:01:29;;;;;;;12.10;5.15;;;;;;;;;;5029425;28;20025;-57
2022/12/08 03:04:06;;;;;;;10.00;4.07;;;;;;;;;;5029381;28;20041;-57
2022/12/08 03:06:36;;;;;;;10.93;4.22;;;;;;;;;;5027521;28;20413;-57
2022/12/08 03:09:08;;;;;;;8.38;3.90;;;;;;;;;;5028444;28;20029;-57
2022/12/08 03:11:40;;;;;;;9.98;3.75;;;;;;;;;;5029297;28;20025;-57
2022/12/08 03:14:07;;;;;;;9.30;4.03;;;;;;;;;;5030531;28;20029;-56
2022/12/08 03:16:35;;;;;;;8.70;3.40;;;;;;;;;;5030725;28;20104;-57
2022/12/08 03:19:10;;;;;;;9.75;3.80;;;;;;;;;;5027249;28;20032;-57
2022/12/08 03:21:36;;;;;;;11.75;3.83;;;;;;;;;;5029382;28;20024;-57
2022/12/08 03:24:04;;;;;;;12.00;4.50;;;;;;;;;;5029937;28;20026;-57
2022/12/08 03:26:33;;;;;;;9.45;4.43;;;;;;;;;;5030666;28;20033;-58
2022/12/08 03:28:58;;;;;;;9.23;4.13;;;;;;;;;;5029877;28;20067;-57
2022/12/08 03:31:25;;;;;;;10.83;4.30;;;;;;;;;;5027105;28;20025;-58
2022/12/08 03:33:51;;;;;;;12.32;4.57;;;;;;;;;;5029593;28;20548;-57
2022/12/08 03:36:17;;;;;;;8.32;3.70;;;;;;;;;;5030469;28;20096;-57
2022/12/08 03:38:43;;;;;;;10.95;4.20;;;;;;;;;;5030307;28;20425;-58
2022/12/08 03:41:18;;;;;;;8.88;4.18;;;;;;;;;;5028602;28;20026;-58
2022/12/08 03:43:44;;;;;;;10.77;4.00;;;;;;;;;;5026869;28;20531;-58
2022/12/08 03:46:10;;;;;;;12.45;4.38;;;;;;;;;;5030163;28;20908;-58
2022/12/08 03:48:35;;;;;;;9.67;4.03;;;;;;;;;;5029687;28;20104;-58
2022/12/08 03:51:00;;;;;;;10.57;4.47;;;;;;;;;;5028970;28;20033;-58
2022/12/08 03:53:25;;;;;;;9.33;4.03;;;;;;;;;;5030323;28;20025;-58
2022/12/08 03:55:51;;;;;;;10.67;4.27;;;;;;;;;;5026475;28;20204;-59
2022/12/08 03:58:16;;;;;;;11.80;4.57;;;;;;;;;;5029850;28;20025;-58
2022/12/08 04:00:42;;;;;;;10.18;4.30;;;;;;;;;;5028608;28;20480;-58
2022/12/08 04:03:07;;;;;;;9.37;4.60;;;;;;;;;;5029714;28;20031;-58
2022/12/08 04:05:32;;;;;;;13.60;4.30;;;;;;;;;;5029725;28;20045;-58
2022/12/08 04:07:57;;;;;;;9.13;4.67;;;;;;;;;;5027346;28;20032;-58
2022/12/08 04:10:22;;;;;;;12.30;4.60;;;;;;;;;;5024068;28;20243;-57
2022/12/08 04:12:47;;;;;;;9.20;4.47;;;;;;;;;;5027119;28;20053;-58
2022/12/08 04:15:13;;;;;;;9.37;4.50;;;;;;;;;;5029904;28;20025;-58
2022/12/08 04:17:38;;;;;;;12.05;4.50;;;;;;;;;;5026550;28;20027;-59
2022/12/08 04:20:03;;;;;;;7.97;3.90;;;;;;;;;;5029639;28;20032;-58
2022/12/08 04:22:28;;;;;;;9.77;4.10;;;;;;;;;;5026807;28;20044;-58
2022/12/08 04:24:53;;;;;;;8.97;3.87;;;;;;;;;;5028985;28;20025;-58
2022/12/08 04:27:19;;;;;;;7.67;3.57;;;;;;;;;;5027683;28;20013;-58
2022/12/08 04:29:44;;;;;;;9.07;3.50;;;;;;;;;;5027592;28;20021;-58
2022/12/08 04:32:09;;;;;;;8.43;3.83;;;;;;;;;;5028152;28;20120;-59
2022/12/08 04:34:34;;;;;;;8.60;3.73;;;;;;;;;;5027329;28;20025;-58
2022/12/08 04:36:59;;;;;;;10.03;4.40;;;;;;;;;;5028524;28;20105;-58
2022/12/08 04:39:24;;;;;;;10.10;3.97;;;;;;;;;;5028042;28;20025;-58
2022/12/08 04:41:50;;;;;;;8.47;4.37;;;;;;;;;;5025774;28;20116;-58
2022/12/08 04:44:15;;;;;;;9.27;3.90;;;;;;;;;;5037232;28;20467;-58
2022/12/08 04:46:40;;;;;;;7.57;3.53;;;;;;;;;;5049574;28;20017;-58
2022/12/08 04:49:05;;;;;;;8.93;3.63;;;;;;;;;;5039454;28;20496;-57
2022/12/08 04:51:30;;;;;;;11.43;4.33;;;;;;;;;;5031368;28;20029;-57
2022/12/08 04:53:55;;;;;;;8.90;4.10;;;;;;;;;;5030503;28;20029;-58
2022/12/08 04:56:21;;;;;;;7.53;3.63;;;;;;;;;;5024066;28;20040;-59
2022/12/08 04:58:46;;;;;;;7.70;3.70;;;;;;;;;;5030255;28;20026;-57
2022/12/08 05:01:11;;;;;;;7.73;3.97;;;;;;;;;;5031913;28;20502;-58
2022/12/08 05:03:36;;;;;;;8.67;3.90;;;;;;;;;;5028893;28;20064;-58
2022/12/08 05:06:02;;;;;;;11.43;4.40;;;;;;;;;;5030525;28;20475;-58
2022/12/08 05:08:27;;;;;;;9.93;4.20;;;;;;;;;;5032792;28;20459;-58
2022/12/08 05:10:52;;;;;;;9.33;4.30;;;;;;;;;;5029388;28;20112;-58
2022/12/08 05:13:17;;;;;;;10.00;3.77;;;;;;;;;;5031959;28;20146;-57
2022/12/08 05:15:43;;;;;;;7.38;3.80;;;;;;;;;;5029933;28;20029;-58
2022/12/08 05:18:08;;;;;;;8.45;4.10;;;;;;;;;;5032709;28;20441;-59
2022/12/08 05:20:34;;;;;;;8.47;4.60;;;;;;;;;;5030587;28;20022;-59
2022/12/08 05:22:59;;;;;;;10.88;4.80;;;;;;;;;;5025752;28;20056;-58
2022/12/08 05:25:24;;;;;;;9.20;4.17;;;;;;;;;;5030055;28;20014;-59
2022/12/08 05:27:49;;;;;;;11.47;4.67;;;;;;;;;;5032014;28;20026;-59
2022/12/08 05:30:14;;;;;;;9.97;4.53;;;;;;;;;;5028400;28;20014;-59
2022/12/08 05:32:39;;;;;;;9.97;4.73;;;;;;;;;;5026990;28;20025;-59
2022/12/08 05:35:05;;;;;;;9.27;4.80;;;;;;;;;;5028009;28;20035;-59
2022/12/08 05:37:30;;;;;;;9.50;4.85;;;;;;;;;;5026440;28;20022;-59
2022/12/08 05:39:55;;;;;;;8.40;4.47;;;;;;;;;;5028402;28;20025;-59
2022/12/08 05:42:21;;;;;;;8.90;4.07;;;;;;;;;;5026280;28;20380;-59
2022/12/08 05:44:46;;;;;;;10.63;5.00;;;;;;;;;;5029736;28;20059;-59
2022/12/08 05:47:11;;;;;;;11.10;5.07;;;;;;;;;;5028842;28;20702;-59
2022/12/08 05:49:36;;;;;;;11.43;5.50;;;;;;;;;;5026825;28;20033;-59
2022/12/08 05:52:02;;;;;;;10.20;4.63;;;;;;;;;;5028705;28;20108;-59
2022/12/08 05:54:27;;;;;;;11.70;5.47;;;;;;;;;;5028742;28;20064;-59
2022/12/08 05:56:52;;;;;;;11.90;5.37;;;;;;;;;;5028026;28;20469;-59
2022/12/08 05:59:17;;;;;;;11.35;4.70;;;;;;;;;;5025948;28;20475;-60
2022/12/08 06:01:43;;;;;;;9.43;4.72;;;;;;;;;;5025734;28;20555;-58
2022/12/08 06:04:08;;;;;;;12.57;5.03;;;;;;;;;;5027986;28;20022;-58
2022/12/08 06:06:34;;;;;;;7.88;3.95;;;;;;;;;;5022411;28;20117;-59
2022/12/08 06:09:01;;;;;;;11.63;4.90;;;;;;;;;;5020193;28;20064;-58
2022/12/08 06:11:27;;;;;;;10.75;4.40;;;;;;;;;;5028482;28;20075;-59
2022/12/08 06:13:53;;;;;;;9.20;4.30;;;;;;;;;;5018271;28;20422;-57
2022/12/08 06:16:18;;;;;;;9.73;5.00;;;;;;;;;;5027566;28;20056;-59
2022/12/08 06:18:44;;;;;;;10.20;4.73;;;;;;;;;;5025392;28;20036;-59
2022/12/08 06:21:09;;;;;;;9.57;5.05;;;;;;;;;;5030962;28;20025;-59
2022/12/08 06:23:35;;;;;;;11.48;5.32;;;;;;;;;;5027252;28;20104;-59
2022/12/08 06:26:01;;;;;;;8.88;4.82;;;;;;;;;;5028742;28;20068;-59
2022/12/08 06:28:26;;;;;;;9.95;4.55;;;;;;;;;;5030788;28;20453;-58
2022/12/08 06:30:51;;;;;;;10.30;5.38;;;;;;;;;;5028629;28;20029;-59
2022/12/08 06:33:16;;;;;;;9.77;5.00;;;;;;;;;;5029073;28;20052;-58
2022/12/08 06:35:42;;;;;;;10.67;5.10;;;;;;;;;;5028583;28;20052;-58
2022/12/08 06:38:07;;;;;;;9.85;4.90;;;;;;;;;;5029936;28;20427;-58
2022/12/08 06:40:32;;;;;;;10.87;4.93;;;;;;;;;;5030736;28;20049;-59
2022/12/08 06:42:57;;;;;;;11.70;5.03;;;;;;;;;;5028777;28;20021;-58
2022/12/08 06:45:22;;;;;;;10.48;4.65;;;;;;;;;;5031841;28;20614;-59
2022/12/08 06:47:47;;;;;;;9.77;4.40;;;;;;;;;;5031464;28;20022;-59
2022/12/08 06:50:13;;;;;;;8.57;4.27;;;;;;;;;;5031072;28;20189;-58
2022/12/08 06:52:40;;;;;;;11.20;4.63;;;;;;;;;;5027608;28;20060;-58
2022/12/08 06:55:05;;;;;;;9.65;4.85;;;;;;;;;;5028800;28;20043;-59
2022/12/08 06:57:31;;;;;;;9.18;4.80;;;;;;;;;;5019058;28;20098;-58
2022/12/08 06:59:56;;;;;;;10.63;4.77;;;;;;;;;;5006252;28;20021;-58
2022/12/08 07:02:21;;;;;;;8.35;4.53;;;;;;;;;;5011431;28;20469;-58
2022/12/08 07:04:46;;;;;;;8.33;4.40;;;;;;;;;;5025617;28;20053;-60
2022/12/08 07:07:11;;;;;;;10.60;5.10;;;;;;;;;;5031474;28;20095;-59
2022/12/08 07:09:37;;;;;;;9.18;4.50;;;;;;;;;;5030884;28;20423;-59
2022/12/08 07:14:35;;;;;;;8.32;4.13;;;;;;;;;;5027515;22;20113;-62
2022/12/08 07:17:01;;;;;;;7.90;3.90;;;;;;;;;;5029209;28;20361;-59
2022/12/08 07:19:26;;;;;;;7.93;3.85;;;;;;;;;;5016887;28;20041;-59
2022/12/08 07:21:51;;;;;;;7.60;4.33;;;;;;;;;;5023197;28;20020;-59
2022/12/08 07:24:16;;;;;;;8.53;4.40;;;;;;;;;;5025921;28;20471;-59
2022/12/08 07:26:41;;;;;;;10.87;4.53;;;;;;;;;;5028563;28;20101;-59
2022/12/08 07:29:08;;;;;;;6.80;3.40;;;;;;;;;;5030549;28;20075;-59
2022/12/08 07:31:33;;;;;;;9.23;4.57;;;;;;;;;;5029039;28;20021;-62
2022/12/08 07:33:58;;;;;;;8.20;4.40;;;;;;;;;;5027422;28;20068;-59
2022/12/08 07:36:23;;;;;;;7.23;3.83;;;;;;;;;;5029978;28;20064;-59
2022/12/08 07:38:49;;;;;;;8.00;3.77;;;;;;;;;;5030698;28;20047;-59
2022/12/08 07:41:15;;;;;;;8.60;4.63;;;;;;;;;;5028436;28;20579;-59
2022/12/08 07:43:40;;;;;;;7.55;3.80;;;;;;;;;;5026589;28;20021;-59
2022/12/08 07:46:05;;;;;;;8.53;4.07;;;;;;;;;;5029841;28;20425;-59
2022/12/08 07:48:31;;;;;;;10.17;4.60;;;;;;;;;;5030141;28;20013;-59
2022/12/08 07:51:03;;;;;;;8.83;4.67;;;;;;;;;;5029936;28;20032;-59
2022/12/08 07:53:28;;;;;;;6.93;3.50;;;;;;;;;;5028469;28;20091;-59
2022/12/08 07:55:53;;;;;;;9.15;4.80;;;;;;;;;;5029535;28;20108;-59
2022/12/08 07:58:18;;;;;;;9.33;4.67;;;;;;;;;;5028775;28;20102;-58
2022/12/08 08:00:44;;;;;;;9.80;4.00;;;;;;;;;;5029349;28;20032;-60
2022/12/08 08:03:10;;;;;;;9.80;4.00;;;;;;;;;;5028077;28;20032;-60
2022/12/08 08:05:35;;;;;;;10.82;5.32;;;;;;;;;;5025876;28;20033;-59
2022/12/08 08:08:00;;;;;;;11.20;4.73;;;;;;;;;;5027874;28;20021;-59
2022/12/08 08:10:25;;;;;;;10.00;4.93;;;;;;;;;;5028154;28;20031;-58
2022/12/08 08:12:50;;;;;;;9.85;4.20;;;;;;;;;;5029049;28;20034;-57
2022/12/08 08:15:16;;;;;;;12.93;4.90;;;;;;;;;;5024100;28;20109;-58
2022/12/08 08:17:41;;;;;;;13.10;5.05;;;;;;;;;;5010492;28;20392;-58
2022/12/08 08:20:07;;;;;;;9.87;4.90;;;;;;;;;;5010385;28;20026;-58
2022/12/08 08:22:32;;;;;;;12.35;4.72;;;;;;;;;;5012198;28;20020;-58
2022/12/08 08:24:57;;;;;;;11.63;5.17;;;;;;;;;;5029430;28;20014;-59
2022/12/08 08:27:23;;;;;;;8.87;4.20;;;;;;;;;;5025182;28;20061;-59
2022/12/08 08:29:49;;;;;;;11.20;5.18;;;;;;;;;;5010255;28;20029;-59
2022/12/08 08:32:14;;;;;;;8.43;4.00;;;;;;;;;;5006309;28;20428;-59
2022/12/08 08:34:39;;;;;;;9.23;4.93;;;;;;;;;;5024354;28;20075;-58
2022/12/08 08:37:04;;;;;;;10.40;4.95;;;;;;;;;;5029970;28;20100;-59
2022/12/08 08:39:30;;;;;;;18.33;5.90;;;;;;;;;;5029782;28;20026;-58
2022/12/08 08:41:55;;;;;;;10.95;5.28;;;;;;;;;;5029773;28;20024;-59
2022/12/08 08:44:20;;;;;;;11.33;4.87;;;;;;;;;;5009130;28;20393;-59
2022/12/08 08:46:46;;;;;;;9.93;5.20;;;;;;;;;;5012583;28;20063;-58
2022/12/08 08:49:11;;;;;;;11.90;4.90;;;;;;;;;;5029907;28;20441;-58
2022/12/08 08:51:36;;;;;;;10.13;4.97;;;;;;;;;;5029576;28;20021;-58
2022/12/08 08:54:01;;;;;;;12.57;5.20;;;;;;;;;;5017765;28;20041;-58
2022/12/08 08:56:26;;;;;;;11.90;5.20;;;;;;;;;;5010080;28;20021;-58
2022/12/08 08:58:52;;;;;;;10.80;4.77;;;;;;;;;;5023289;28;20079;-59
2022/12/08 09:01:18;;;;;;;9.73;4.90;;;;;;;;;;5026726;28;20029;-58
2022/12/08 09:03:44;;;;;;;12.05;6.05;;;;;;;;;;5025115;28;20114;-59
2022/12/08 09:06:09;;;;;;;12.82;5.63;;;;;;;;;;5010022;28;20022;-57
2022/12/08 09:08:34;;;;;;;10.20;5.30;;;;;;;;;;5009791;28;20110;-60
2022/12/08 09:10:59;;;;;;;11.73;6.60;;;;;;;;;;5018277;28;20052;-58
2022/12/08 09:13:25;;;;;;;12.27;5.30;;;;;;;;;;5025977;28;20563;-59
2022/12/08 09:15:50;;;;;;;11.73;6.33;;;;;;;;;;5012097;28;20124;-58
2022/12/08 09:18:15;;;;;;;12.87;5.80;;;;;;;;;;5009790;28;20687;-59
2022/12/08 09:20:40;;;;;;;11.30;5.37;;;;;;;;;;5009495;28;20114;-57
2022/12/08 09:23:05;;;;;;;11.83;5.73;;;;;;;;;;5008850;28;20104;-59
2022/12/08 09:25:30;;;;;;;11.60;5.82;;;;;;;;;;5017831;28;20038;-59
2022/12/08 09:27:56;;;;;;;10.60;5.53;;;;;;;;;;5023989;28;20029;-56
2022/12/08 09:30:21;;;;;;;12.17;5.83;;;;;;;;;;5028951;28;20049;-57
2022/12/08 09:32:46;;;;;;;11.65;5.80;;;;;;;;;;5029356;28;20025;-57
2022/12/08 09:35:12;;;;;;;11.47;5.60;;;;;;;;;;5022286;28;20033;-57
2022/12/08 09:37:37;;;;;;;10.52;5.65;;;;;;;;;;5013499;28;20464;-58
2022/12/08 09:40:04;;;;;;;10.73;5.87;;;;;;;;;;5013177;28;20022;-57
2022/12/08 09:42:43;;;;;;;10.20;4.85;;;;;;;;;;5020897;28;20116;-57
2022/12/08 09:45:13;;;;;;;10.98;4.85;;;;;;;;;;5033057;28;20491;-59
2022/12/08 09:47:56;;;;;;;10.27;5.30;;;;;;;;;;5013185;28;20446;-58
2022/12/08 09:50:29;;;;;;;10.50;4.82;;;;;;;;;;5012883;28;20092;-57
2022/12/08 09:52:54;;;;;;;;;;;;;;;;;;5022199;28;20467;-58
2022/12/08 09:55:23;;;;;;;9.38;4.70;;;;;;;;;;5032564;28;20372;-58
2022/12/08 09:57:51;;;;;;;10.05;4.82;;;;;;;;;;5022928;28;20437;-58
2022/12/08 10:00:17;;;;;;;8.50;4.82;;;;;;;;;;5024665;28;20481;-57
2022/12/08 10:02:43;;;;;;;8.18;4.43;;;;;;;;;;5012631;28;20076;-58
2022/12/08 10:05:11;;;;;;;9.52;4.78;;;;;;;;;;5013124;28;20382;-57
2022/12/08 10:07:41;;;;;;;8.18;4.20;;;;;;;;;;5017839;28;20026;-58
2022/12/08 10:10:12;;;;;;;7.25;3.80;;;;;;;;;;5026967;28;20079;-58
2022/12/08 10:12:44;;;;;;;8.48;4.45;;;;;;;;;;5030435;28;20039;-58
2022/12/08 10:15:15;;;;;;;8.23;4.07;;;;;;;;;;5032504;28;20409;-58
2022/12/08 10:17:43;;;;;;;7.38;4.35;;;;;;;;;;5025806;28;20137;-58
2022/12/08 10:20:14;;;;;;;8.45;4.57;;;;;;;;;;5028892;28;20029;-58
2022/12/08 10:22:39;;;;;;;7.95;4.50;;;;;;;;;;5031834;28;20068;-58
2022/12/08 10:25:13;;;;;;;8.27;4.17;;;;;;;;;;5022401;28;20045;-58
2022/12/08 10:27:39;;;;;;;8.30;4.30;;;;;;;;;;5019301;28;20114;-58
2022/12/08 10:30:11;;;;;;;6.68;3.53;;;;;;;;;;5011098;28;20147;-58
2022/12/08 10:32:37;;;;;;;8.40;3.85;;;;;;;;;;5011697;28;20105;-58
2022/12/08 10:35:06;;;;;;;8.07;4.17;;;;;;;;;;5012510;28;20122;-57
2022/12/08 10:37:31;;;;;;;6.95;3.80;;;;;;;;;;5012314;28;20202;-58
2022/12/08 10:40:12;;;;;;;6.88;3.50;;;;;;;;;;5020217;28;20025;-58
2022/12/08 10:42:51;;;;;;;8.88;4.10;;;;;;;;;;5030092;28;20024;-57
2022/12/08 10:45:22;;;;;;;7.32;3.78;;;;;;;;;;5031451;28;20676;-57
2022/12/08 10:47:54;;;;;;;7.65;3.80;;;;;;;;;;5031303;28;20028;-58
2022/12/08 10:50:27;;;;;;;8.05;3.88;;;;;;;;;;5017757;28;20417;-58
2022/12/08 10:52:54;;;;;;;8.57;4.38;;;;;;;;;;5031750;28;20017;-57
2022/12/08 10:55:19;;;;;;;8.43;3.40;;;;;;;;;;5031717;28;20502;-57
2022/12/08 10:57:45;;;;;;;6.70;3.72;;;;;;;;;;5028402;28;20108;-57
2022/12/08 11:00:14;;;;;;;7.77;4.07;;;;;;;;;;5022433;28;20029;-57
2022/12/08 11:02:59;;;;;;;6.50;3.55;;;;;;;;;;5011163;28;20072;-58
2022/12/08 11:05:26;;;;;;;6.85;3.58;;;;;;;;;;5011609;28;20052;-58
2022/12/08 11:07:52;;;;;;;7.95;4.10;;;;;;;;;;5011878;28;20026;-57
2022/12/08 11:10:19;;;;;;;7.28;3.88;;;;;;;;;;5020488;28;20096;-57
2022/12/08 11:12:44;;;;;;;7.65;3.78;;;;;;;;;;5013665;28;20071;-58
2022/12/08 11:15:14;;;;;;;6.30;3.40;;;;;;;;;;5031478;28;20092;-58
2022/12/08 11:17:39;;;;;;;6.78;3.83;;;;;;;;;;5027972;28;20048;-58
2022/12/08 11:20:07;;;;;;;7.20;3.53;;;;;;;;;;5031273;28;20025;-58
2022/12/08 11:22:34;;;;;;;8.77;3.85;;;;;;;;;;5012331;28;20082;-58
2022/12/08 11:24:59;;;;;;;;;;;;;;;;;;5011821;28;20382;-57
2022/12/08 11:27:24;;;;;;;8.45;3.03;;;;;;;;;;5010943;28;19943;-57
2022/12/08 11:29:50;;;;;;;5.97;3.13;;;;;;;;;;5030175;28;20025;-58
2022/12/08 11:32:15;;;;;;;6.32;2.80;;;;;;;;;;5019526;28;20033;-59
2022/12/08 11:34:43;;;;;;;6.13;2.90;;;;;;;;;;5011076;28;20469;-58
2022/12/08 11:37:25;;;;;;;6.35;3.13;;;;;;;;;;5011448;28;20026;-59
2022/12/08 11:39:52;;;;;;;6.63;3.10;;;;;;;;;;5026394;28;20029;-58
2022/12/08 11:42:20;;;;;;;7.20;2.63;;;;;;;;;;5023173;28;20112;-58
2022/12/08 11:44:48;;;;;;;6.47;2.97;;;;;;;;;;5030668;28;20025;-58
2022/12/08 11:47:15;;;;;;;7.05;2.80;;;;;;;;;;5030668;28;20085;-58
2022/12/08 11:49:41;;;;;;;6.47;2.90;;;;;;;;;;5028492;28;20065;-58
2022/12/08 11:52:15;;;;;;;5.95;3.00;;;;;;;;;;5028678;28;20459;-58
2022/12/08 11:54:43;;;;;;;6.07;2.80;;;;;;;;;;5010494;28;20033;-58
2022/12/08 11:57:19;;;;;;;7.20;3.00;;;;;;;;;;5010840;28;20028;-58
2022/12/08 11:59:46;;;;;;;6.63;3.13;;;;;;;;;;5027736;28;20392;-57
2022/12/08 12:02:19;;;;;;;7.13;3.20;;;;;;;;;;5030138;28;20025;-58
2022/12/08 12:04:51;;;;;;;6.78;2.88;;;;;;;;;;5012021;28;20026;-57
2022/12/08 12:07:36;;;;;;;7.30;3.17;;;;;;;;;;5020367;28;20053;-58
2022/12/08 12:10:01;;;;;;;;;;;;;;;;;;5031131;28;20041;-57
2022/12/08 12:12:49;;;;;;;5.63;2.72;;;;;;;;;;5029345;28;19905;-58
2022/12/08 12:15:20;;;;;;;5.78;2.75;;;;;;;;;;5012159;28;20096;-57
2022/12/08 12:18:08;;;;;;;5.30;2.60;;;;;;;;;;5010431;28;20105;-58
2022/12/08 12:20:56;;;;;;;5.07;2.08;;;;;;;;;;5010332;28;20021;-58
2022/12/08 12:23:24;;;;;;;4.30;1.98;;;;;;;;;;5001183;28;20714;-58
2022/12/08 12:25:54;;;;;;;5.40;2.33;;;;;;;;;;5007204;28;20053;-58
2022/12/08 12:28:19;;;;;;;5.07;2.15;;;;;;;;;;5012384;28;20030;-58
2022/12/08 12:30:59;;;;;;;5.37;2.03;;;;;;;;;;5029917;28;20029;-58
2022/12/08 12:33:25;;;;;;;4.57;1.85;;;;;;;;;;5029679;28;20029;-57
2022/12/08 12:35:50;;;;;;;4.68;1.90;;;;;;;;;;5013423;28;20056;-58
2022/12/08 12:41:07;;;;;;;5.30;2.20;;;;;;;;;;5010197;28;20153;-57
2022/12/08 12:43:36;;;;;;;5.18;2.17;;;;;;;;;;5011209;28;20672;-59
2022/12/08 12:46:20;;;;;;;6.50;2.25;;;;;;;;;;5020243;28;20025;-58
2022/12/08 12:48:45;;;;;;;4.63;2.00;;;;;;;;;;5009532;28;20036;-58
2022/12/08 12:51:29;;;;;;;4.80;2.00;;;;;;;;;;5010177;28;20031;-58
2022/12/08 12:54:14;;;;;;;4.72;2.15;;;;;;;;;;5009763;28;20458;-59
2022/12/08 12:56:45;;;;;;;5.78;2.60;;;;;;;;;;5019339;28;20041;-58
2022/12/08 12:59:20;;;;;;;6.15;2.42;;;;;;;;;;5014747;28;20057;-57
2022/12/08 13:01:53;;;;;;;4.97;2.13;;;;;;;;;;5021036;28;20025;-60
2022/12/08 13:04:19;;;;;;;5.30;2.42;;;;;;;;;;5008643;28;20418;-58
2022/12/08 13:06:46;;;;;;;5.57;2.40;;;;;;;;;;5003430;28;20037;-58
2022/12/08 13:09:18;;;;;;;6.22;3.03;;;;;;;;;;5009028;28;20246;-57
2022/12/08 13:11:45;;;;;;;5.60;2.58;;;;;;;;;;5012968;28;20032;-58
2022/12/08 13:14:24;;;;;;;6.05;2.30;;;;;;;;;;5014744;28;20064;-57
2022/12/08 13:16:51;;;;;;;6.05;2.47;;;;;;;;;;5006512;28;20015;-57
2022/12/08 13:19:16;;;;;;;6.05;2.70;;;;;;;;;;5011645;28;20072;-60
2022/12/08 13:21:42;;;;;;;5.30;2.33;;;;;;;;;;5012253;28;20412;-58
2022/12/08 13:24:13;;;;;;;4.67;2.10;;;;;;;;;;5013067;28;20020;-58
2022/12/08 13:26:48;;;;;;;5.43;2.40;;;;;;;;;;5029094;28;20022;-58
2022/12/08 13:29:14;;;;;;;5.65;2.42;;;;;;;;;;5016593;28;20026;-58
2022/12/08 13:31:45;;;;;;;9.40;2.40;;;;;;;;;;5032670;28;20024;-58
2022/12/08 13:34:18;;;;;;;5.85;2.30;;;;;;;;;;5032914;28;20100;-58
2022/12/08 13:36:53;;;;;;;6.40;2.22;;;;;;;;;;5029734;28;20095;-59
2022/12/08 13:39:21;;;;;;;6.90;2.50;;;;;;;;;;5018398;28;20493;-59
2022/12/08 13:41:50;;;;;;;6.68;2.55;;;;;;;;;;5013055;28;20022;-59
2022/12/08 13:44:24;;;;;;;6.53;2.55;;;;;;;;;;5012498;28;20049;-59
2022/12/08 13:46:51;;;;;;;5.60;2.38;;;;;;;;;;5012892;28;20072;-59
2022/12/08 13:49:21;;;;;;;5.18;2.33;;;;;;;;;;5011862;28;20036;-58
2022/12/08 13:51:48;;;;;;;6.03;2.53;;;;;;;;;;5007481;28;20022;-57
2022/12/08 13:54:19;;;;;;;5.10;2.25;;;;;;;;;;5012054;28;20053;-58
2022/12/08 13:56:45;;;;;;;6.13;2.80;;;;;;;;;;5012726;28;20021;-58
2022/12/08 13:59:28;;;;;;;5.28;2.08;;;;;;;;;;5010875;28;20413;-58
2022/12/08 14:01:55;;;;;;;6.72;2.72;;;;;;;;;;5023964;28;20022;-58
2022/12/08 14:04:21;;;;;;;;;;;;;;;;;;5033082;28;20021;-58
2022/12/08 14:06:47;;;;;;;5.72;2.30;;;;;;;;;;5032170;28;19956;-58
2022/12/08 14:09:15;;;;;;;6.10;2.50;;;;;;;;;;5032495;28;20088;-58
2022/12/08 14:11:51;;;;;;;6.18;2.50;;;;;;;;;;5019500;28;20037;-59
2022/12/08 14:14:18;;;;;;;6.93;3.10;;;;;;;;;;5028042;28;20037;-59
2022/12/08 14:16:54;;;;;;;5.18;2.45;;;;;;;;;;5031116;28;20524;-59
2022/12/08 14:19:21;;;;;;;6.93;2.95;;;;;;;;;;5028240;28;20022;-58
2022/12/08 14:21:46;;;;;;;;;;;;;;;;;;5010749;28;20377;-59
2022/12/08 14:24:12;;;;;;;6.20;2.70;;;;;;;;;;5022563;28;20346;-59
2022/12/08 14:26:37;;;;;;;6.57;2.37;;;;;;;;;;5031864;28;20025;-59
2022/12/08 14:29:05;;;;;;;7.53;2.70;;;;;;;;;;5031954;28;20522;-59
2022/12/08 14:31:30;;;;;;;6.88;2.75;;;;;;;;;;5026912;28;20060;-58
2022/12/08 14:33:55;;;;;;;6.70;2.60;;;;;;;;;;5011263;28;20057;-58
2022/12/08 14:36:20;;;;;;;6.50;2.90;;;;;;;;;;5012221;28;20515;-59
2022/12/08 14:38:46;;;;;;;6.83;2.57;;;;;;;;;;5011796;28;20451;-58
2022/12/08 14:41:12;;;;;;;6.78;2.90;;;;;;;;;;5015956;28;20087;-58
2022/12/08 14:43:39;;;;;;;6.73;2.90;;;;;;;;;;5015256;28;20022;-58
2022/12/08 14:46:17;;;;;;;6.68;2.92;;;;;;;;;;5017759;28;20064;-58
2022/12/08 14:48:43;;;;;;;7.85;3.15;;;;;;;;;;5020323;28;20121;-58
2022/12/08 14:51:13;;;;;;;7.20;3.03;;;;;;;;;;5020826;28;20535;-58
2022/12/08 14:53:40;;;;;;;6.07;2.88;;;;;;;;;;5029008;28;20021;-58